sensor_id;sensor_type;location;lat;lon;timestamp;temperature;humidity
15257;DHT22;7731;50.720;6.912;2022-10-16T00:01:27;14.10;99.90
15257;DHT22;7731;50.720;6.912;2022-10-16T00:04:00;14.10;99.90
15257;DHT22;7731;50.720;6.912;2022-10-16T00:06:33;14.00;99.90
15257;DHT22;7731;50.720;6.912;2022-10-16T00:09:04;14.00;99.90
15257;DHT22;7731;50.720;6.912;2022-10-16T00:11:38;14.00;99.90
15257;DHT22;7731;50.720;6.912;2022-10-16T00:14:12;13.90;99.90
15257;DHT22;7731;50.720;6.912;2022-10-16T00:16:43;13.90;99.90
15257;DHT22;7731;50.720;6.912;2022-10-16T00:19:24;13.90;99.90
15257;DHT22;7731;50.720;6.912;2022-10-16T00:21:57;13.90;99.90
15257;DHT22;7731;50.720;6.912;2022-10-16T00:24:27;13.80;99.90
15257;DHT22;7731;50.720;6.912;2022-10-16T00:26:57;13.80;99.90
15257;DHT22;7731;50.720;6.912;2022-10-16T00:29:28;13.80;99.90
15257;DHT22;7731;50.720;6.912;2022-10-16T00:31:58;13.80;99.90
15257;DHT22;7731;50.720;6.912;2022-10-16T00:34:28;13.80;99.90
15257;DHT22;7731;50.720;6.912;2022-10-16T00:37:02;13.80;99.90
15257;DHT22;7731;50.720;6.912;2022-10-16T00:39:36;13.80;99.90
15257;DHT22;7731;50.720;6.912;2022-10-16T00:42:06;13.80;99.90
15257;DHT22;7731;50.720;6.912;2022-10-16T00:44:48;13.70;99.90
15257;DHT22;7731;50.720;6.912;2022-10-16T00:47:24;13.80;99.90
15257;DHT22;7731;50.720;6.912;2022-10-16T00:50:04;13.70;99.90
15257;DHT22;7731;50.720;6.912;2022-10-16T00:52:46;13.80;99.90
15257;DHT22;7731;50.720;6.912;2022-10-16T00:55:19;13.80;99.90
15257;DHT22;7731;50.720;6.912;2022-10-16T00:57:56;13.80;99.90
15257;DHT22;7731;50.720;6.912;2022-10-16T01:00:30;13.80;99.90
15257;DHT22;7731;50.720;6.912;2022-10-16T01:03:03;14.00;99.90
15257;DHT22;7731;50.720;6.912;2022-10-16T01:09:17;14.00;99.90
15257;DHT22;7731;50.720;6.912;2022-10-16T01:12:04;14.10;99.90
15257;DHT22;7731;50.720;6.912;2022-10-16T01:14:48;14.10;99.90
15257;DHT22;7731;50.720;6.912;2022-10-16T01:17:33;14.10;99.90
15257;DHT22;7731;50.720;6.912;2022-10-16T01:20:17;14.00;99.90
15257;DHT22;7731;50.720;6.912;2022-10-16T01:23:05;14.00;99.90
15257;DHT22;7731;50.720;6.912;2022-10-16T01:29:15;13.80;99.90
15257;DHT22;7731;50.720;6.912;2022-10-16T01:31:53;13.80;99.90
15257;DHT22;7731;50.720;6.912;2022-10-16T01:34:38;13.80;99.90
15257;DHT22;7731;50.720;6.912;2022-10-16T01:37:18;13.70;99.90
15257;DHT22;7731;50.720;6.912;2022-10-16T01:39:59;13.70;99.90
15257;DHT22;7731;50.720;6.912;2022-10-16T01:42:37;13.60;99.90
15257;DHT22;7731;50.720;6.912;2022-10-16T01:45:15;13.60;99.90
15257;DHT22;7731;50.720;6.912;2022-10-16T01:48:02;13.70;99.90
15257;DHT22;7731;50.720;6.912;2022-10-16T01:50:41;13.80;99.90
15257;DHT22;7731;50.720;6.912;2022-10-16T01:53:14;13.80;99.90
15257;DHT22;7731;50.720;6.912;2022-10-16T01:55:47;13.80;99.90
15257;DHT22;7731;50.720;6.912;2022-10-16T01:58:19;13.90;99.90
15257;DHT22;7731;50.720;6.912;2022-10-16T02:00:54;13.90;99.90
15257;DHT22;7731;50.720;6.912;2022-10-16T02:03:26;13.90;99.90
15257;DHT22;7731;50.720;6.912;2022-10-16T02:05:59;14.00;99.90
15257;DHT22;7731;50.720;6.912;2022-10-16T02:08:31;14.10;99.90
15257;DHT22;7731;50.720;6.912;2022-10-16T02:11:05;14.10;99.90
15257;DHT22;7731;50.720;6.912;2022-10-16T02:13:38;14.10;99.90
15257;DHT22;7731;50.720;6.912;2022-10-16T02:16:16;14.20;99.90
15257;DHT22;7731;50.720;6.912;2022-10-16T02:18:59;14.20;99.90
15257;DHT22;7731;50.720;6.912;2022-10-16T02:21:33;14.20;99.90
15257;DHT22;7731;50.720;6.912;2022-10-16T02:24:15;14.20;99.90
15257;DHT22;7731;50.720;6.912;2022-10-16T02:26:55;14.10;99.90
15257;DHT22;7731;50.720;6.912;2022-10-16T02:29:36;14.10;99.90
15257;DHT22;7731;50.720;6.912;2022-10-16T02:32:16;14.00;99.90
15257;DHT22;7731;50.720;6.912;2022-10-16T02:34:51;14.00;99.90
15257;DHT22;7731;50.720;6.912;2022-10-16T02:37:22;14.00;99.90
15257;DHT22;7731;50.720;6.912;2022-10-16T02:39:55;14.00;99.90
15257;DHT22;7731;50.720;6.912;2022-10-16T02:42:34;14.00;99.90
15257;DHT22;7731;50.720;6.912;2022-10-16T02:45:08;14.10;99.90
15257;DHT22;7731;50.720;6.912;2022-10-16T02:47:42;14.20;99.90
15257;DHT22;7731;50.720;6.912;2022-10-16T02:50:13;14.10;99.90
15257;DHT22;7731;50.720;6.912;2022-10-16T02:52:43;14.20;99.90
15257;DHT22;7731;50.720;6.912;2022-10-16T02:55:13;14.20;99.90
15257;DHT22;7731;50.720;6.912;2022-10-16T02:57:43;14.30;99.90
15257;DHT22;7731;50.720;6.912;2022-10-16T03:00:16;14.40;99.90
15257;DHT22;7731;50.720;6.912;2022-10-16T03:02:49;14.50;99.90
15257;DHT22;7731;50.720;6.912;2022-10-16T03:05:22;14.40;99.90
15257;DHT22;7731;50.720;6.912;2022-10-16T03:08:06;14.40;99.90
15257;DHT22;7731;50.720;6.912;2022-10-16T03:10:39;14.40;99.90
15257;DHT22;7731;50.720;6.912;2022-10-16T03:13:09;14.40;99.90
15257;DHT22;7731;50.720;6.912;2022-10-16T03:15:39;14.40;99.90
15257;DHT22;7731;50.720;6.912;2022-10-16T03:18:20;14.40;99.90
15257;DHT22;7731;50.720;6.912;2022-10-16T03:20:50;14.40;99.90
15257;DHT22;7731;50.720;6.912;2022-10-16T03:23:20;14.50;99.90
15257;DHT22;7731;50.720;6.912;2022-10-16T03:25:53;14.50;99.90
15257;DHT22;7731;50.720;6.912;2022-10-16T03:28:25;14.50;99.90
15257;DHT22;7731;50.720;6.912;2022-10-16T03:30:55;14.40;99.90
15257;DHT22;7731;50.720;6.912;2022-10-16T03:33:28;14.40;99.90
15257;DHT22;7731;50.720;6.912;2022-10-16T03:35:58;14.40;99.90
15257;DHT22;7731;50.720;6.912;2022-10-16T03:38:31;14.40;99.90
15257;DHT22;7731;50.720;6.912;2022-10-16T03:41:01;14.40;99.90
15257;DHT22;7731;50.720;6.912;2022-10-16T03:43:37;14.40;99.90
15257;DHT22;7731;50.720;6.912;2022-10-16T03:46:08;14.40;99.90
15257;DHT22;7731;50.720;6.912;2022-10-16T03:48:40;14.40;99.90
15257;DHT22;7731;50.720;6.912;2022-10-16T03:51:13;14.50;99.90
15257;DHT22;7731;50.720;6.912;2022-10-16T03:53:46;14.50;99.90
15257;DHT22;7731;50.720;6.912;2022-10-16T03:56:16;14.50;99.90
15257;DHT22;7731;50.720;6.912;2022-10-16T03:58:46;14.50;99.90
15257;DHT22;7731;50.720;6.912;2022-10-16T04:01:16;14.60;99.90
15257;DHT22;7731;50.720;6.912;2022-10-16T04:03:49;14.60;99.90
15257;DHT22;7731;50.720;6.912;2022-10-16T04:06:19;14.60;99.90
15257;DHT22;7731;50.720;6.912;2022-10-16T04:08:49;14.60;99.90
15257;DHT22;7731;50.720;6.912;2022-10-16T04:11:23;14.50;99.90
15257;DHT22;7731;50.720;6.912;2022-10-16T04:13:53;14.50;99.90
15257;DHT22;7731;50.720;6.912;2022-10-16T04:16:24;14.50;99.90
15257;DHT22;7731;50.720;6.912;2022-10-16T04:18:56;14.50;99.90
15257;DHT22;7731;50.720;6.912;2022-10-16T04:21:29;14.50;99.90
15257;DHT22;7731;50.720;6.912;2022-10-16T04:24:00;14.60;99.90
15257;DHT22;7731;50.720;6.912;2022-10-16T04:26:30;14.60;99.90
15257;DHT22;7731;50.720;6.912;2022-10-16T04:29:04;14.60;99.90
15257;DHT22;7731;50.720;6.912;2022-10-16T04:31:47;14.50;99.90
15257;DHT22;7731;50.720;6.912;2022-10-16T04:34:19;14.50;99.90
15257;DHT22;7731;50.720;6.912;2022-10-16T04:36:52;14.40;99.90
15257;DHT22;7731;50.720;6.912;2022-10-16T04:39:22;14.40;99.90
15257;DHT22;7731;50.720;6.912;2022-10-16T04:41:55;14.40;99.90
15257;DHT22;7731;50.720;6.912;2022-10-16T04:44:28;14.30;99.90
15257;DHT22;7731;50.720;6.912;2022-10-16T04:46:58;14.40;99.90
15257;DHT22;7731;50.720;6.912;2022-10-16T04:49:34;14.40;99.90
15257;DHT22;7731;50.720;6.912;2022-10-16T04:52:04;14.30;99.90
15257;DHT22;7731;50.720;6.912;2022-10-16T04:54:36;14.30;99.90
15257;DHT22;7731;50.720;6.912;2022-10-16T04:57:09;14.30;99.90
15257;DHT22;7731;50.720;6.912;2022-10-16T04:59:39;14.30;99.90
15257;DHT22;7731;50.720;6.912;2022-10-16T05:02:11;14.40;99.90
15257;DHT22;7731;50.720;6.912;2022-10-16T05:04:46;14.40;99.90
15257;DHT22;7731;50.720;6.912;2022-10-16T05:07:16;14.30;99.90
15257;DHT22;7731;50.720;6.912;2022-10-16T05:09:46;14.30;99.90
15257;DHT22;7731;50.720;6.912;2022-10-16T05:12:16;14.30;99.90
15257;DHT22;7731;50.720;6.912;2022-10-16T05:14:46;14.30;99.90
15257;DHT22;7731;50.720;6.912;2022-10-16T05:17:22;14.20;99.90
15257;DHT22;7731;50.720;6.912;2022-10-16T05:19:55;14.10;99.90
15257;DHT22;7731;50.720;6.912;2022-10-16T05:22:25;14.20;99.90
15257;DHT22;7731;50.720;6.912;2022-10-16T05:24:57;14.10;99.90
15257;DHT22;7731;50.720;6.912;2022-10-16T05:27:31;14.20;99.90
15257;DHT22;7731;50.720;6.912;2022-10-16T05:30:01;14.20;99.90
15257;DHT22;7731;50.720;6.912;2022-10-16T05:32:35;14.30;99.90
15257;DHT22;7731;50.720;6.912;2022-10-16T05:35:10;14.20;99.90
15257;DHT22;7731;50.720;6.912;2022-10-16T05:37:50;14.30;99.90
15257;DHT22;7731;50.720;6.912;2022-10-16T05:40:20;14.20;99.90
15257;DHT22;7731;50.720;6.912;2022-10-16T05:42:55;14.30;99.90
15257;DHT22;7731;50.720;6.912;2022-10-16T05:45:25;14.30;99.90
15257;DHT22;7731;50.720;6.912;2022-10-16T05:47:56;14.20;99.90
15257;DHT22;7731;50.720;6.912;2022-10-16T05:50:34;14.20;99.90
15257;DHT22;7731;50.720;6.912;2022-10-16T05:53:12;14.10;99.90
15257;DHT22;7731;50.720;6.912;2022-10-16T05:55:42;14.10;99.90
15257;DHT22;7731;50.720;6.912;2022-10-16T05:58:12;14.10;99.90
15257;DHT22;7731;50.720;6.912;2022-10-16T06:00:42;14.10;99.90
15257;DHT22;7731;50.720;6.912;2022-10-16T06:03:12;14.10;99.90
15257;DHT22;7731;50.720;6.912;2022-10-16T06:05:51;14.20;99.90
15257;DHT22;7731;50.720;6.912;2022-10-16T06:08:23;14.20;99.90
15257;DHT22;7731;50.720;6.912;2022-10-16T06:11:01;14.20;99.90
15257;DHT22;7731;50.720;6.912;2022-10-16T06:13:35;14.20;99.90
15257;DHT22;7731;50.720;6.912;2022-10-16T06:16:06;14.20;99.90
15257;DHT22;7731;50.720;6.912;2022-10-16T06:18:37;14.20;99.90
15257;DHT22;7731;50.720;6.912;2022-10-16T06:21:11;14.10;99.90
15257;DHT22;7731;50.720;6.912;2022-10-16T06:23:44;14.10;99.90
15257;DHT22;7731;50.720;6.912;2022-10-16T06:26:16;14.00;99.90
15257;DHT22;7731;50.720;6.912;2022-10-16T06:28:50;14.00;99.90
15257;DHT22;7731;50.720;6.912;2022-10-16T06:31:23;13.90;99.90
15257;DHT22;7731;50.720;6.912;2022-10-16T06:33:57;13.90;99.90
15257;DHT22;7731;50.720;6.912;2022-10-16T06:36:35;13.90;99.90
15257;DHT22;7731;50.720;6.912;2022-10-16T06:39:05;13.80;99.90
15257;DHT22;7731;50.720;6.912;2022-10-16T06:41:36;13.80;99.90
15257;DHT22;7731;50.720;6.912;2022-10-16T06:44:06;13.80;99.90
15257;DHT22;7731;50.720;6.912;2022-10-16T06:46:42;13.90;99.90
15257;DHT22;7731;50.720;6.912;2022-10-16T06:49:21;14.10;99.90
15257;DHT22;7731;50.720;6.912;2022-10-16T06:51:54;14.20;99.90
15257;DHT22;7731;50.720;6.912;2022-10-16T06:54:24;14.30;99.90
15257;DHT22;7731;50.720;6.912;2022-10-16T06:56:54;14.30;99.90
15257;DHT22;7731;50.720;6.912;2022-10-16T06:59:26;14.50;99.90
15257;DHT22;7731;50.720;6.912;2022-10-16T07:01:57;14.70;99.90
15257;DHT22;7731;50.720;6.912;2022-10-16T07:04:27;14.70;99.90
15257;DHT22;7731;50.720;6.912;2022-10-16T07:07:00;14.70;99.90
15257;DHT22;7731;50.720;6.912;2022-10-16T07:09:35;14.70;99.90
15257;DHT22;7731;50.720;6.912;2022-10-16T07:12:07;14.60;99.90
15257;DHT22;7731;50.720;6.912;2022-10-16T07:14:38;14.80;99.90
15257;DHT22;7731;50.720;6.912;2022-10-16T07:17:08;14.90;99.90
15257;DHT22;7731;50.720;6.912;2022-10-16T07:19:38;15.10;99.90
15257;DHT22;7731;50.720;6.912;2022-10-16T07:22:11;15.30;99.90
15257;DHT22;7731;50.720;6.912;2022-10-16T07:24:41;15.40;99.90
15257;DHT22;7731;50.720;6.912;2022-10-16T07:27:17;15.40;99.90
15257;DHT22;7731;50.720;6.912;2022-10-16T07:29:49;15.40;99.90
15257;DHT22;7731;50.720;6.912;2022-10-16T07:32:22;15.40;99.90
15257;DHT22;7731;50.720;6.912;2022-10-16T07:35:02;15.30;99.90
15257;DHT22;7731;50.720;6.912;2022-10-16T07:37:37;15.30;99.90
15257;DHT22;7731;50.720;6.912;2022-10-16T07:40:14;15.50;99.90
15257;DHT22;7731;50.720;6.912;2022-10-16T07:42:44;15.70;99.90
15257;DHT22;7731;50.720;6.912;2022-10-16T07:45:18;15.80;99.90
15257;DHT22;7731;50.720;6.912;2022-10-16T07:47:48;16.10;99.90
15257;DHT22;7731;50.720;6.912;2022-10-16T07:50:21;16.30;99.90
15257;DHT22;7731;50.720;6.912;2022-10-16T07:52:53;16.60;99.90
15257;DHT22;7731;50.720;6.912;2022-10-16T07:55:24;17.00;99.90
15257;DHT22;7731;50.720;6.912;2022-10-16T07:57:54;17.10;99.90
15257;DHT22;7731;50.720;6.912;2022-10-16T08:00:24;17.10;99.90
15257;DHT22;7731;50.720;6.912;2022-10-16T08:02:55;17.10;99.90
15257;DHT22;7731;50.720;6.912;2022-10-16T08:05:29;17.00;99.90
15257;DHT22;7731;50.720;6.912;2022-10-16T08:08:04;16.80;99.90
15257;DHT22;7731;50.720;6.912;2022-10-16T08:10:35;16.70;99.90
15257;DHT22;7731;50.720;6.912;2022-10-16T08:13:05;16.50;99.90
15257;DHT22;7731;50.720;6.912;2022-10-16T08:15:47;16.50;99.90
15257;DHT22;7731;50.720;6.912;2022-10-16T08:18:17;16.90;99.90
15257;DHT22;7731;50.720;6.912;2022-10-16T08:20:57;18.00;99.90
15257;DHT22;7731;50.720;6.912;2022-10-16T08:23:34;19.10;99.90
15257;DHT22;7731;50.720;6.912;2022-10-16T08:26:06;19.60;99.90
15257;DHT22;7731;50.720;6.912;2022-10-16T08:28:37;21.00;99.90
15257;DHT22;7731;50.720;6.912;2022-10-16T08:31:09;22.60;38.50
15257;DHT22;7731;50.720;6.912;2022-10-16T08:33:42;24.00;1.00
15257;DHT22;7731;50.720;6.912;2022-10-16T08:36:17;25.00;1.00
15257;DHT22;7731;50.720;6.912;2022-10-16T08:38:55;24.80;1.00
15257;DHT22;7731;50.720;6.912;2022-10-16T08:41:52;24.30;1.00
15257;DHT22;7731;50.720;6.912;2022-10-16T08:45:10;23.60;1.00
15257;DHT22;7731;50.720;6.912;2022-10-16T08:47:58;22.90;1.00
15257;DHT22;7731;50.720;6.912;2022-10-16T08:50:38;22.30;15.80
15257;DHT22;7731;50.720;6.912;2022-10-16T08:53:15;21.20;73.90
15257;DHT22;7731;50.720;6.912;2022-10-16T08:55:53;20.80;91.10
15257;DHT22;7731;50.720;6.912;2022-10-16T08:58:28;20.50;93.30
15257;DHT22;7731;50.720;6.912;2022-10-16T09:01:01;20.30;99.90
15257;DHT22;7731;50.720;6.912;2022-10-16T09:03:48;20.20;99.90
15257;DHT22;7731;50.720;6.912;2022-10-16T09:06:41;20.20;99.90
15257;DHT22;7731;50.720;6.912;2022-10-16T09:09:31;20.10;99.90
15257;DHT22;7731;50.720;6.912;2022-10-16T09:12:28;20.50;99.90
15257;DHT22;7731;50.720;6.912;2022-10-16T09:15:14;21.20;91.40
15257;DHT22;7731;50.720;6.912;2022-10-16T09:18:10;21.90;43.10
15257;DHT22;7731;50.720;6.912;2022-10-16T09:20:51;22.20;9.00
15257;DHT22;7731;50.720;6.912;2022-10-16T09:23:35;22.30;11.10
15257;DHT22;7731;50.720;6.912;2022-10-16T09:28:46;23.80;1.00
15257;DHT22;7731;50.720;6.912;2022-10-16T09:31:18;25.50;1.00
15257;DHT22;7731;50.720;6.912;2022-10-16T09:33:57;27.00;1.00
15257;DHT22;7731;50.720;6.912;2022-10-16T09:36:40;26.70;99.90
15257;DHT22;7731;50.720;6.912;2022-10-16T09:39:14;26.10;1.00
15257;DHT22;7731;50.720;6.912;2022-10-16T09:41:45;26.50;1.00
15257;DHT22;7731;50.720;6.912;2022-10-16T09:44:23;27.60;1.00
15257;DHT22;7731;50.720;6.912;2022-10-16T09:47:12;28.40;99.90
15257;DHT22;7731;50.720;6.912;2022-10-16T09:49:57;28.20;1.00
15257;DHT22;7731;50.720;6.912;2022-10-16T09:52:31;27.50;62.60
15257;DHT22;7731;50.720;6.912;2022-10-16T09:55:14;26.80;99.90
15257;DHT22;7731;50.720;6.912;2022-10-16T09:57:51;26.10;1.00
15257;DHT22;7731;50.720;6.912;2022-10-16T10:00:27;24.90;1.00
15257;DHT22;7731;50.720;6.912;2022-10-16T10:02:58;24.50;87.40
15257;DHT22;7731;50.720;6.912;2022-10-16T10:05:29;25.00;99.90
15257;DHT22;7731;50.720;6.912;2022-10-16T10:08:01;25.00;1.00
15257;DHT22;7731;50.720;6.912;2022-10-16T10:10:40;25.10;1.00
15257;DHT22;7731;50.720;6.912;2022-10-16T10:13:20;24.40;99.90
15257;DHT22;7731;50.720;6.912;2022-10-16T10:15:57;23.80;1.00
15257;DHT22;7731;50.720;6.912;2022-10-16T10:18:27;23.70;1.00
15257;DHT22;7731;50.720;6.912;2022-10-16T10:20:59;23.50;1.00
15257;DHT22;7731;50.720;6.912;2022-10-16T10:23:33;23.30;1.00
15257;DHT22;7731;50.720;6.912;2022-10-16T10:26:07;23.70;1.00
15257;DHT22;7731;50.720;6.912;2022-10-16T10:28:53;24.40;99.90
15257;DHT22;7731;50.720;6.912;2022-10-16T10:31:38;25.00;1.00
15257;DHT22;7731;50.720;6.912;2022-10-16T10:34:33;25.50;99.90
15257;DHT22;7731;50.720;6.912;2022-10-16T10:37:34;25.80;99.90
15257;DHT22;7731;50.720;6.912;2022-10-16T10:40:30;25.60;99.90
15257;DHT22;7731;50.720;6.912;2022-10-16T10:43:17;25.00;99.90
15257;DHT22;7731;50.720;6.912;2022-10-16T10:46:03;25.20;99.90
15257;DHT22;7731;50.720;6.912;2022-10-16T10:48:58;26.40;1.00
15257;DHT22;7731;50.720;6.912;2022-10-16T10:51:55;25.80;99.90
15257;DHT22;7731;50.720;6.912;2022-10-16T10:54:46;26.10;99.90
15257;DHT22;7731;50.720;6.912;2022-10-16T10:57:28;27.70;2.00
15257;DHT22;7731;50.720;6.912;2022-10-16T11:00:30;27.20;1.00
15257;DHT22;7731;50.720;6.912;2022-10-16T11:03:13;27.20;99.90
15257;DHT22;7731;50.720;6.912;2022-10-16T11:05:56;26.80;99.90
15257;DHT22;7731;50.720;6.912;2022-10-16T11:08:36;25.80;99.90
15257;DHT22;7731;50.720;6.912;2022-10-16T11:11:15;26.30;1.00
15257;DHT22;7731;50.720;6.912;2022-10-16T11:14:02;26.30;1.00
15257;DHT22;7731;50.720;6.912;2022-10-16T11:16:59;25.70;62.10
15257;DHT22;7731;50.720;6.912;2022-10-16T11:19:41;24.70;1.00
15257;DHT22;7731;50.720;6.912;2022-10-16T11:22:22;24.30;1.00
15257;DHT22;7731;50.720;6.912;2022-10-16T11:25:00;23.80;99.90
15257;DHT22;7731;50.720;6.912;2022-10-16T11:27:41;23.70;1.00
15257;DHT22;7731;50.720;6.912;2022-10-16T11:30:20;23.70;1.00
15257;DHT22;7731;50.720;6.912;2022-10-16T11:33:21;24.20;99.90
15257;DHT22;7731;50.720;6.912;2022-10-16T11:36:03;24.70;1.00
15257;DHT22;7731;50.720;6.912;2022-10-16T11:38:48;24.80;1.00
15257;DHT22;7731;50.720;6.912;2022-10-16T11:41:29;24.60;1.00
15257;DHT22;7731;50.720;6.912;2022-10-16T11:44:15;24.00;1.00
15257;DHT22;7731;50.720;6.912;2022-10-16T11:47:05;23.80;99.90
15257;DHT22;7731;50.720;6.912;2022-10-16T11:50:09;23.00;1.00
15257;DHT22;7731;50.720;6.912;2022-10-16T11:52:53;22.60;1.00
15257;DHT22;7731;50.720;6.912;2022-10-16T11:55:35;22.30;1.00
15257;DHT22;7731;50.720;6.912;2022-10-16T11:58:18;22.30;1.00
15257;DHT22;7731;50.720;6.912;2022-10-16T12:01:01;22.10;1.00
15257;DHT22;7731;50.720;6.912;2022-10-16T12:03:45;22.00;1.00
15257;DHT22;7731;50.720;6.912;2022-10-16T12:06:25;21.70;1.00
15257;DHT22;7731;50.720;6.912;2022-10-16T12:09:01;21.40;1.00
15257;DHT22;7731;50.720;6.912;2022-10-16T12:11:38;21.30;1.00
15257;DHT22;7731;50.720;6.912;2022-10-16T12:14:34;21.30;1.00
15257;DHT22;7731;50.720;6.912;2022-10-16T12:17:34;21.50;1.00
15257;DHT22;7731;50.720;6.912;2022-10-16T12:20:27;21.60;1.00
15257;DHT22;7731;50.720;6.912;2022-10-16T12:23:05;21.50;1.00
15257;DHT22;7731;50.720;6.912;2022-10-16T12:25:37;21.60;1.00
15257;DHT22;7731;50.720;6.912;2022-10-16T12:28:31;21.70;1.00
15257;DHT22;7731;50.720;6.912;2022-10-16T12:31:05;21.80;1.00
15257;DHT22;7731;50.720;6.912;2022-10-16T12:33:58;21.80;1.00
15257;DHT22;7731;50.720;6.912;2022-10-16T12:36:34;21.70;1.00
15257;DHT22;7731;50.720;6.912;2022-10-16T12:39:21;21.60;1.00
15257;DHT22;7731;50.720;6.912;2022-10-16T12:42:20;21.40;1.00
15257;DHT22;7731;50.720;6.912;2022-10-16T12:45:29;21.30;1.00
15257;DHT22;7731;50.720;6.912;2022-10-16T12:48:18;21.30;1.00
15257;DHT22;7731;50.720;6.912;2022-10-16T12:51:19;21.30;1.00
15257;DHT22;7731;50.720;6.912;2022-10-16T12:53:59;21.40;2.20
15257;DHT22;7731;50.720;6.912;2022-10-16T12:56:40;21.40;1.00
15257;DHT22;7731;50.720;6.912;2022-10-16T12:59:24;21.50;1.00
15257;DHT22;7731;50.720;6.912;2022-10-16T13:02:39;21.70;1.00
15257;DHT22;7731;50.720;6.912;2022-10-16T13:05:27;21.70;1.00
15257;DHT22;7731;50.720;6.912;2022-10-16T13:08:27;22.00;1.00
15257;DHT22;7731;50.720;6.912;2022-10-16T13:11:15;22.10;3.50
15257;DHT22;7731;50.720;6.912;2022-10-16T13:14:06;21.90;1.00
15257;DHT22;7731;50.720;6.912;2022-10-16T13:16:57;22.00;1.00
15257;DHT22;7731;50.720;6.912;2022-10-16T13:19:44;22.10;1.00
15257;DHT22;7731;50.720;6.912;2022-10-16T13:22:26;22.10;1.00
15257;DHT22;7731;50.720;6.912;2022-10-16T13:25:15;22.00;2.80
15257;DHT22;7731;50.720;6.912;2022-10-16T13:28:05;22.00;5.10
15257;DHT22;7731;50.720;6.912;2022-10-16T13:30:42;22.00;12.30
15257;DHT22;7731;50.720;6.912;2022-10-16T13:33:16;21.90;15.20
15257;DHT22;7731;50.720;6.912;2022-10-16T13:35:57;21.70;10.20
15257;DHT22;7731;50.720;6.912;2022-10-16T13:38:33;21.60;19.80
15257;DHT22;7731;50.720;6.912;2022-10-16T13:41:13;21.50;26.40
15257;DHT22;7731;50.720;6.912;2022-10-16T13:43:49;21.50;23.10
15257;DHT22;7731;50.720;6.912;2022-10-16T13:46:24;21.50;21.50
15257;DHT22;7731;50.720;6.912;2022-10-16T13:49:00;21.50;22.50
15257;DHT22;7731;50.720;6.912;2022-10-16T13:51:39;21.60;22.60
15257;DHT22;7731;50.720;6.912;2022-10-16T13:54:10;21.60;22.90
15257;DHT22;7731;50.720;6.912;2022-10-16T13:56:46;21.70;21.90
15257;DHT22;7731;50.720;6.912;2022-10-16T13:59:37;21.80;18.90
15257;DHT22;7731;50.720;6.912;2022-10-16T14:02:21;21.70;27.20
15257;DHT22;7731;50.720;6.912;2022-10-16T14:04:59;21.70;30.90
15257;DHT22;7731;50.720;6.912;2022-10-16T14:07:32;21.60;30.90
15257;DHT22;7731;50.720;6.912;2022-10-16T14:10:06;21.40;52.10
15257;DHT22;7731;50.720;6.912;2022-10-16T14:12:57;21.20;56.60
15257;DHT22;7731;50.720;6.912;2022-10-16T14:15:31;21.20;62.50
15257;DHT22;7731;50.720;6.912;2022-10-16T14:18:04;21.10;65.20
15257;DHT22;7731;50.720;6.912;2022-10-16T14:20:37;21.20;69.10
15257;DHT22;7731;50.720;6.912;2022-10-16T14:23:23;21.20;70.10
15257;DHT22;7731;50.720;6.912;2022-10-16T14:26:12;21.20;67.10
15257;DHT22;7731;50.720;6.912;2022-10-16T14:28:46;21.10;76.10
15257;DHT22;7731;50.720;6.912;2022-10-16T14:31:25;21.00;76.90
15257;DHT22;7731;50.720;6.912;2022-10-16T14:33:58;21.00;70.90
15257;DHT22;7731;50.720;6.912;2022-10-16T14:36:29;21.00;79.30
15257;DHT22;7731;50.720;6.912;2022-10-16T14:39:13;21.00;79.20
15257;DHT22;7731;50.720;6.912;2022-10-16T14:41:50;21.00;82.70
15257;DHT22;7731;50.720;6.912;2022-10-16T14:44:30;21.00;86.30
15257;DHT22;7731;50.720;6.912;2022-10-16T14:47:09;20.90;89.80
15257;DHT22;7731;50.720;6.912;2022-10-16T14:49:49;20.90;94.80
15257;DHT22;7731;50.720;6.912;2022-10-16T14:52:25;20.80;98.00
15257;DHT22;7731;50.720;6.912;2022-10-16T14:55:07;20.80;99.90
15257;DHT22;7731;50.720;6.912;2022-10-16T14:57:44;20.60;99.90
15257;DHT22;7731;50.720;6.912;2022-10-16T15:00:18;20.60;99.90
15257;DHT22;7731;50.720;6.912;2022-10-16T15:02:50;20.50;99.90
15257;DHT22;7731;50.720;6.912;2022-10-16T15:05:26;20.40;99.90
15257;DHT22;7731;50.720;6.912;2022-10-16T15:07:58;20.40;99.90
15257;DHT22;7731;50.720;6.912;2022-10-16T15:10:35;20.30;99.90
15257;DHT22;7731;50.720;6.912;2022-10-16T15:13:11;20.20;99.90
15257;DHT22;7731;50.720;6.912;2022-10-16T15:15:43;20.20;99.90
15257;DHT22;7731;50.720;6.912;2022-10-16T15:18:15;20.10;99.90
15257;DHT22;7731;50.720;6.912;2022-10-16T15:20:51;20.10;99.90
15257;DHT22;7731;50.720;6.912;2022-10-16T15:23:22;20.00;99.90
15257;DHT22;7731;50.720;6.912;2022-10-16T15:26:15;19.90;99.90
15257;DHT22;7731;50.720;6.912;2022-10-16T15:28:45;19.80;99.90
15257;DHT22;7731;50.720;6.912;2022-10-16T15:31:15;19.80;99.90
15257;DHT22;7731;50.720;6.912;2022-10-16T15:33:45;19.80;99.90
15257;DHT22;7731;50.720;6.912;2022-10-16T15:36:33;19.70;99.90
15257;DHT22;7731;50.720;6.912;2022-10-16T15:39:08;19.50;99.90
15257;DHT22;7731;50.720;6.912;2022-10-16T15:41:46;19.40;99.90
15257;DHT22;7731;50.720;6.912;2022-10-16T15:44:18;19.30;99.90
15257;DHT22;7731;50.720;6.912;2022-10-16T15:46:50;19.30;99.90
15257;DHT22;7731;50.720;6.912;2022-10-16T15:49:20;19.20;99.90
15257;DHT22;7731;50.720;6.912;2022-10-16T15:51:50;19.20;99.90
15257;DHT22;7731;50.720;6.912;2022-10-16T15:54:21;19.20;99.90
15257;DHT22;7731;50.720;6.912;2022-10-16T15:56:54;19.20;99.90
15257;DHT22;7731;50.720;6.912;2022-10-16T15:59:24;19.20;99.90
15257;DHT22;7731;50.720;6.912;2022-10-16T16:01:57;19.20;99.90
15257;DHT22;7731;50.720;6.912;2022-10-16T16:04:30;19.20;99.90
15257;DHT22;7731;50.720;6.912;2022-10-16T16:07:10;19.10;99.90
15257;DHT22;7731;50.720;6.912;2022-10-16T16:09:41;19.10;99.90
15257;DHT22;7731;50.720;6.912;2022-10-16T16:12:14;19.00;99.90
15257;DHT22;7731;50.720;6.912;2022-10-16T16:14:47;18.90;99.90
15257;DHT22;7731;50.720;6.912;2022-10-16T16:17:18;18.90;99.90
15257;DHT22;7731;50.720;6.912;2022-10-16T16:19:51;18.80;99.90
15257;DHT22;7731;50.720;6.912;2022-10-16T16:22:21;18.80;99.90
15257;DHT22;7731;50.720;6.912;2022-10-16T16:24:52;18.80;99.90
15257;DHT22;7731;50.720;6.912;2022-10-16T16:27:27;18.70;99.90
15257;DHT22;7731;50.720;6.912;2022-10-16T16:30:00;18.60;99.90
15257;DHT22;7731;50.720;6.912;2022-10-16T16:32:31;18.50;99.90
15257;DHT22;7731;50.720;6.912;2022-10-16T16:35:01;18.50;99.90
15257;DHT22;7731;50.720;6.912;2022-10-16T16:37:34;18.50;99.90
15257;DHT22;7731;50.720;6.912;2022-10-16T16:40:08;18.40;99.90
15257;DHT22;7731;50.720;6.912;2022-10-16T16:42:47;18.40;99.90
15257;DHT22;7731;50.720;6.912;2022-10-16T16:45:17;18.40;99.90
15257;DHT22;7731;50.720;6.912;2022-10-16T16:47:48;18.40;99.90
15257;DHT22;7731;50.720;6.912;2022-10-16T16:50:18;18.30;99.90
15257;DHT22;7731;50.720;6.912;2022-10-16T16:52:48;18.30;99.90
15257;DHT22;7731;50.720;6.912;2022-10-16T16:55:18;18.20;99.90
15257;DHT22;7731;50.720;6.912;2022-10-16T16:57:55;18.20;99.90
15257;DHT22;7731;50.720;6.912;2022-10-16T17:00:28;18.30;99.90
15257;DHT22;7731;50.720;6.912;2022-10-16T17:03:01;18.40;99.90